createdAt,value
2023-04-14T00:02:17.270Z,6.80
2023-04-14T00:04:44.604Z,6.80
2023-04-14T00:07:23.596Z,6.80
2023-04-14T00:09:53.316Z,6.80
2023-04-14T00:12:20.759Z,6.80
2023-04-14T00:14:48.997Z,6.80
2023-04-14T00:17:27.320Z,6.80
2023-04-14T00:20:01.614Z,7.10
2023-04-14T00:22:32.183Z,6.80
2023-04-14T00:25:02.105Z,6.70
2023-04-14T00:27:31.943Z,6.70
2023-04-14T00:30:03.599Z,6.80
2023-04-14T00:32:31.169Z,6.70
2023-04-14T00:39:43.065Z,6.80
2023-04-14T00:42:19.911Z,6.60
2023-04-14T00:45:22.466Z,6.50
2023-04-14T00:47:57.149Z,6.60
2023-04-14T00:50:24.953Z,6.70
2023-04-14T00:52:58.122Z,6.50
2023-04-14T00:55:27.549Z,6.50
2023-04-14T00:57:55.221Z,6.50
2023-04-14T01:00:22.906Z,6.50
2023-04-14T01:02:50.624Z,6.50
2023-04-14T01:05:22.071Z,6.50
2023-04-14T01:07:50.039Z,6.50
2023-04-14T01:10:24.795Z,6.50
2023-04-14T01:13:43.574Z,6.50
2023-04-14T01:16:36.159Z,6.40
2023-04-14T01:19:34.339Z,6.40
2023-04-14T01:22:10.752Z,6.50
2023-04-14T01:24:56.039Z,6.50
2023-04-14T01:27:47.610Z,6.50
2023-04-14T01:30:47.636Z,6.50
2023-04-14T01:33:18.267Z,6.50
2023-04-14T01:35:54.923Z,6.50
2023-04-14T01:38:40.100Z,6.50
2023-04-14T01:41:13.608Z,6.50
2023-04-14T01:43:42.695Z,6.60
2023-04-14T01:46:19.657Z,6.70
2023-04-14T01:48:56.158Z,6.60
2023-04-14T01:51:27.810Z,6.60
2023-04-14T01:53:57.300Z,6.50
2023-04-14T01:59:11.850Z,6.50
2023-04-14T02:01:44.435Z,6.70
2023-04-14T02:04:11.909Z,6.50
2023-04-14T02:06:40.219Z,6.50
2023-04-14T02:09:10.520Z,6.40
2023-04-14T02:11:42.704Z,6.40
2023-04-14T02:14:18.632Z,6.40
2023-04-14T02:16:50.399Z,6.40
2023-04-14T02:19:21.249Z,6.10
2023-04-14T02:21:51.147Z,6.30
2023-04-14T02:24:28.099Z,6.30
2023-04-14T02:27:00.429Z,6.40
2023-04-14T02:32:30.143Z,6.50
2023-04-14T02:35:19.210Z,6.60
2023-04-14T02:37:51.016Z,6.60
2023-04-14T02:40:27.452Z,6.60
2023-04-14T02:42:58.076Z,6.70
2023-04-14T02:45:30.815Z,6.80
2023-04-14T02:48:02.263Z,6.80
2023-04-14T02:50:32.110Z,7.00
2023-04-14T02:53:02.273Z,6.90
2023-04-14T02:55:29.391Z,6.90
2023-04-14T02:58:02.473Z,6.90
2023-04-14T03:00:34.025Z,6.80
2023-04-14T03:03:04.157Z,6.90
2023-04-14T03:05:34.221Z,7.10
2023-04-14T03:08:01.648Z,6.90
2023-04-14T03:10:52.620Z,6.90
2023-04-14T03:13:29.176Z,7.00
2023-04-14T03:15:56.679Z,6.90
2023-04-14T03:18:31.213Z,6.90
2023-04-14T03:21:02.907Z,7.00
2023-04-14T03:23:31.569Z,6.90
2023-04-14T03:25:59.335Z,7.00
2023-04-14T03:28:30.916Z,7.00
2023-04-14T03:31:01.508Z,7.00
2023-04-14T03:33:29.210Z,6.90
2023-04-14T03:35:57.685Z,7.00
2023-04-14T03:38:28.954Z,7.10
2023-04-14T03:41:00.178Z,7.00
2023-04-14T03:43:30.439Z,7.10
2023-04-14T03:46:00.895Z,7.00
2023-04-14T03:48:30.324Z,7.00
2023-04-14T03:51:02.366Z,7.00
2023-04-14T03:53:35.114Z,7.00
2023-04-14T03:56:02.686Z,7.00
2023-04-14T03:58:30.140Z,7.00
2023-04-14T04:01:00.355Z,7.00
2023-04-14T04:03:45.352Z,7.00
2023-04-14T04:06:24.606Z,6.90
2023-04-14T04:09:04.986Z,7.00
2023-04-14T04:11:32.987Z,6.90
2023-04-14T04:14:04.232Z,6.90
2023-04-14T04:16:35.425Z,6.90
2023-04-14T04:19:06.307Z,6.90
2023-04-14T04:21:37.092Z,6.80
2023-04-14T04:24:15.486Z,6.80
2023-04-14T04:26:45.984Z,6.80
2023-04-14T04:29:13.362Z,6.80
2023-04-14T04:31:52.180Z,6.80
2023-04-14T04:34:23.547Z,6.70
2023-04-14T04:37:01.187Z,6.70
2023-04-14T04:39:30.092Z,6.90
2023-04-14T04:42:06.515Z,6.70
2023-04-14T04:44:46.967Z,6.70
2023-04-14T04:47:17.445Z,6.80
2023-04-14T04:49:45.197Z,6.80
2023-04-14T04:52:15.700Z,6.80
2023-04-14T04:54:44.076Z,6.80
2023-04-14T04:57:37.645Z,6.90
2023-04-14T05:00:09.149Z,6.80
2023-04-14T05:02:37.995Z,6.80
2023-04-14T05:05:05.754Z,6.90
2023-04-14T05:07:36.163Z,6.80
2023-04-14T05:10:09.241Z,6.90
2023-04-14T05:12:36.944Z,6.90
2023-04-14T05:15:10.192Z,6.90
2023-04-14T05:17:38.066Z,6.90
2023-04-14T05:20:11.959Z,7.10
2023-04-14T05:22:41.336Z,6.90
2023-04-14T05:25:09.279Z,6.90
2023-04-14T05:27:36.609Z,7.00
2023-04-14T05:30:04.900Z,7.00
2023-04-14T05:32:32.197Z,7.00
2023-04-14T05:35:00.143Z,7.00
2023-04-14T05:37:30.220Z,7.00
2023-04-14T05:40:00.510Z,7.10
2023-04-14T05:42:27.909Z,7.10
2023-04-14T05:44:55.357Z,7.20
2023-04-14T05:47:22.575Z,7.20
2023-04-14T05:49:53.038Z,7.20
2023-04-14T05:52:20.295Z,7.30
2023-04-14T05:54:47.570Z,7.30
2023-04-14T05:57:17.957Z,7.30
2023-04-14T05:59:47.869Z,7.40
2023-04-14T06:02:17.893Z,7.40
2023-04-14T06:04:45.734Z,7.40
2023-04-14T06:07:23.197Z,7.50
2023-04-14T06:09:50.888Z,7.50
2023-04-14T06:12:21.288Z,7.60
2023-04-14T06:14:51.991Z,7.60
2023-04-14T06:17:21.912Z,7.70
2023-04-14T06:19:49.583Z,7.70
2023-04-14T06:22:24.802Z,7.70
2023-04-14T06:24:52.148Z,7.90
2023-04-14T06:27:20.260Z,7.90
2023-04-14T06:29:50.141Z,8.00
2023-04-14T06:32:30.460Z,8.10
2023-04-14T06:35:22.126Z,8.10
2023-04-14T06:38:02.845Z,8.20
2023-04-14T06:40:35.227Z,8.30
2023-04-14T06:43:06.334Z,8.30
2023-04-14T06:46:08.790Z,8.40
2023-04-14T06:48:45.259Z,8.50
2023-04-14T06:51:14.524Z,8.70
2023-04-14T06:53:55.667Z,8.60
2023-04-14T06:56:23.059Z,8.70
2023-04-14T07:01:50.966Z,8.80
2023-04-14T07:04:20.733Z,8.80
2023-04-14T07:06:50.294Z,8.90
2023-04-14T07:09:20.210Z,8.90
2023-04-14T07:11:47.422Z,9.00
2023-04-14T07:14:17.200Z,9.00
2023-04-14T07:16:44.416Z,9.00
2023-04-14T07:19:39.211Z,9.10
2023-04-14T07:22:31.080Z,9.00
2023-04-14T07:24:57.992Z,9.00
2023-04-14T07:27:28.880Z,9.10
2023-04-14T07:29:56.013Z,8.90
2023-04-14T07:32:23.235Z,8.90
2023-04-14T07:34:50.337Z,8.90
2023-04-14T07:37:17.601Z,9.00
2023-04-14T07:42:25.672Z,9.20
2023-04-14T07:44:56.068Z,9.20
2023-04-14T07:47:27.799Z,9.30
2023-04-14T07:50:11.897Z,9.40
2023-04-14T07:52:41.884Z,9.40
2023-04-14T07:55:11.790Z,9.60
2023-04-14T07:57:38.909Z,9.70
2023-04-14T08:00:06.727Z,9.70
2023-04-14T08:02:37.875Z,9.80
2023-04-14T08:05:07.239Z,10.00
2023-04-14T08:07:35.962Z,10.00
2023-04-14T08:10:04.260Z,10.10
2023-04-14T08:12:37.213Z,10.20
2023-04-14T08:15:04.727Z,10.20
2023-04-14T08:17:33.946Z,10.30
2023-04-14T08:20:03.123Z,10.30
2023-04-14T08:22:33.008Z,10.30
2023-04-14T08:25:01.813Z,10.40
2023-04-14T08:27:28.751Z,10.70
2023-04-14T08:29:55.877Z,10.50
2023-04-14T08:32:23.144Z,10.60
2023-04-14T08:35:35.669Z,10.60
2023-04-14T08:37:40.286Z,10.70
2023-04-14T08:40:09.777Z,10.70
2023-04-14T08:42:36.983Z,10.80
2023-04-14T08:45:07.509Z,10.80
2023-04-14T08:47:36.128Z,11.00
2023-04-14T08:50:04.468Z,11.00
2023-04-14T08:52:34.928Z,11.10
2023-04-14T08:55:15.861Z,11.20
2023-04-14T08:57:45.681Z,11.30
2023-04-14T09:00:44.231Z,11.30
2023-04-14T09:03:14.167Z,11.40
2023-04-14T09:05:42.612Z,11.40
2023-04-14T09:08:10.180Z,11.50
2023-04-14T09:10:37.680Z,11.70
2023-04-14T09:13:09.338Z,11.80
2023-04-14T09:15:38.586Z,11.90
2023-04-14T09:18:06.074Z,12.00
2023-04-14T09:20:37.536Z,12.10
2023-04-14T09:23:14.848Z,12.10
2023-04-14T09:25:44.148Z,12.10
2023-04-14T09:28:32.095Z,12.10
2023-04-14T09:31:04.970Z,12.10
2023-04-14T09:33:32.794Z,12.10
2023-04-14T09:36:02.254Z,12.10
2023-04-14T09:38:33.969Z,12.00
2023-04-14T09:43:47.885Z,11.90
2023-04-14T09:46:23.257Z,11.80
2023-04-14T09:49:01.040Z,11.80
2023-04-14T09:51:28.946Z,11.80
2023-04-14T09:54:04.439Z,11.80
2023-04-14T09:56:34.692Z,11.80
2023-04-14T09:59:02.977Z,11.80
2023-04-14T10:01:37.753Z,12.00
2023-04-14T10:04:10.682Z,12.00
2023-04-14T10:06:42.301Z,12.10
2023-04-14T10:09:12.020Z,12.20
2023-04-14T10:11:41.388Z,12.20
2023-04-14T10:14:12.041Z,12.20
2023-04-14T10:16:41.911Z,12.30
2023-04-14T10:19:11.919Z,12.30
2023-04-14T10:21:38.967Z,12.30
2023-04-14T10:24:17.280Z,12.50
2023-04-14T10:26:47.343Z,12.50
2023-04-14T10:29:14.671Z,12.50
2023-04-14T10:31:44.096Z,12.50
2023-04-14T10:34:22.382Z,12.40
2023-04-14T10:37:01.758Z,12.10
2023-04-14T10:39:33.581Z,11.40
2023-04-14T10:42:15.278Z,10.80
2023-04-14T10:44:42.603Z,10.50
2023-04-14T10:47:12.777Z,10.30
2023-04-14T10:49:41.164Z,10.20
2023-04-14T10:52:20.068Z,10.30
2023-04-14T10:55:19.275Z,10.30
2023-04-14T11:00:46.885Z,10.40
2023-04-14T11:13:27.395Z,10.50
2023-04-14T11:15:58.520Z,10.70
2023-04-14T11:18:45.318Z,11.10
2023-04-14T11:21:23.730Z,11.40
2023-04-14T11:24:06.746Z,11.70
2023-04-14T11:26:35.076Z,12.00
2023-04-14T11:29:14.293Z,12.20
2023-04-14T11:31:47.881Z,12.20
2023-04-14T11:34:21.069Z,12.30
2023-04-14T11:36:49.833Z,12.30
2023-04-14T11:39:21.198Z,12.50
2023-04-14T11:41:48.642Z,12.70
2023-04-14T11:44:19.525Z,12.90
2023-04-14T11:46:47.122Z,13.20
2023-04-14T11:49:14.386Z,13.40
2023-04-14T11:51:42.048Z,13.50
2023-04-14T11:54:11.887Z,13.70
2023-04-14T11:56:40.007Z,13.80
2023-04-14T11:59:07.026Z,13.80
2023-04-14T12:01:45.154Z,13.90
2023-04-14T12:04:19.820Z,13.80
2023-04-14T12:06:49.864Z,13.70
2023-04-14T12:09:21.411Z,13.60
2023-04-14T12:11:57.972Z,13.40
2023-04-14T12:14:33.010Z,13.40
2023-04-14T12:17:01.914Z,13.30
2023-04-14T12:19:33.627Z,13.20
2023-04-14T12:22:06.937Z,13.10
2023-04-14T12:24:45.306Z,13.10
2023-04-14T12:27:12.823Z,13.10
2023-04-14T12:29:56.396Z,13.10
2023-04-14T12:32:25.194Z,13.20
2023-04-14T12:35:02.013Z,13.00
2023-04-14T12:37:32.779Z,13.00
2023-04-14T12:40:07.328Z,12.90
2023-04-14T12:43:00.858Z,12.70
2023-04-14T12:45:28.617Z,12.70
2023-04-14T12:47:59.178Z,12.80
2023-04-14T12:50:31.083Z,12.90
2023-04-14T12:53:01.770Z,13.10
2023-04-14T12:55:38.611Z,13.40
2023-04-14T12:58:08.936Z,13.60
2023-04-14T13:00:40.704Z,13.60
2023-04-14T13:03:11.171Z,13.50
2023-04-14T13:05:42.817Z,13.30
2023-04-14T13:08:10.441Z,13.20
2023-04-14T13:10:37.828Z,13.10
2023-04-14T13:13:05.158Z,13.10
2023-04-14T13:16:15.271Z,13.10
2023-04-14T13:18:23.434Z,13.10
2023-04-14T13:20:58.222Z,13.00
2023-04-14T13:23:26.649Z,12.90
2023-04-14T13:25:53.975Z,12.90
2023-04-14T13:28:31.678Z,12.80
2023-04-14T13:30:58.777Z,12.90
2023-04-14T13:33:39.398Z,12.80
2023-04-14T13:36:06.790Z,12.70
2023-04-14T13:38:36.582Z,12.60
2023-04-14T13:41:16.930Z,12.40
2023-04-14T13:43:44.840Z,12.30
2023-04-14T13:46:15.151Z,12.20
2023-04-14T13:48:46.832Z,12.20
2023-04-14T13:51:31.740Z,12.20
2023-04-14T13:54:00.929Z,12.30
2023-04-14T13:56:28.182Z,12.30
2023-04-14T13:59:01.097Z,12.20
2023-04-14T14:01:28.629Z,12.10
2023-04-14T14:03:58.724Z,12.00
2023-04-14T14:06:26.626Z,11.90
2023-04-14T14:09:06.981Z,11.80
2023-04-14T14:11:34.851Z,11.70
2023-04-14T14:14:07.027Z,11.70
2023-04-14T14:16:43.203Z,11.70
2023-04-14T14:19:17.085Z,11.70
2023-04-14T14:21:57.469Z,11.70
2023-04-14T14:24:30.929Z,11.70
2023-04-14T14:27:04.603Z,11.70
2023-04-14T14:29:47.212Z,11.60
2023-04-14T14:32:15.774Z,11.60
2023-04-14T14:34:47.027Z,11.60
2023-04-14T14:37:15.097Z,11.60
2023-04-14T14:39:45.837Z,11.60
2023-04-14T14:42:13.000Z,11.50
2023-04-14T14:44:40.588Z,11.50
2023-04-14T14:47:07.768Z,11.50
2023-04-14T14:49:39.336Z,11.50
2023-04-14T14:52:11.823Z,11.50
2023-04-14T14:54:39.085Z,11.40
2023-04-14T14:57:09.349Z,11.40
2023-04-14T14:59:48.588Z,11.30
2023-04-14T15:02:25.923Z,11.20
2023-04-14T15:04:56.671Z,11.20
2023-04-14T15:07:28.613Z,11.10
2023-04-14T15:09:55.654Z,11.10
2023-04-14T15:13:53.172Z,11.00
2023-04-14T15:21:19.369Z,10.90
2023-04-14T15:23:05.070Z,11.00
2023-04-14T15:25:32.131Z,11.00
2023-04-14T15:30:43.605Z,11.00
2023-04-14T15:33:39.558Z,11.10
2023-04-14T15:36:43.315Z,11.30
2023-04-14T15:39:48.091Z,11.50
2023-04-14T15:42:14.535Z,11.70
2023-04-14T15:44:41.818Z,11.90
2023-04-14T15:47:09.469Z,11.70
2023-04-14T15:49:37.248Z,11.70
2023-04-14T15:52:12.367Z,11.60
2023-04-14T15:54:43.099Z,11.50
2023-04-14T15:57:14.538Z,11.40
2023-04-14T15:59:42.159Z,11.40
2023-04-14T16:02:19.409Z,11.30
2023-04-14T16:05:04.856Z,11.30
2023-04-14T16:07:40.718Z,11.20
2023-04-14T16:10:08.721Z,11.10
2023-04-14T16:12:36.944Z,11.10
2023-04-14T16:15:13.638Z,11.10
2023-04-14T16:17:43.607Z,11.10
2023-04-14T16:20:13.734Z,11.10
2023-04-14T16:22:46.569Z,11.10
2023-04-14T16:25:14.699Z,11.10
2023-04-14T16:27:45.175Z,11.20
2023-04-14T16:30:16.058Z,11.00
2023-04-14T16:32:43.503Z,10.90
2023-04-14T16:35:20.014Z,10.90
2023-04-14T16:38:01.062Z,10.80
2023-04-14T16:40:28.614Z,10.80
2023-04-14T16:43:01.346Z,10.80
2023-04-14T16:45:35.017Z,10.80
2023-04-14T16:48:02.858Z,10.90
2023-04-14T16:50:32.136Z,10.90
2023-04-14T16:52:59.607Z,11.00
2023-04-14T16:55:26.553Z,11.00
2023-04-14T16:57:53.589Z,11.00
2023-04-14T17:00:21.470Z,11.10
2023-04-14T17:02:48.958Z,11.00
2023-04-14T17:05:16.584Z,10.90
2023-04-14T17:07:59.084Z,10.90
2023-04-14T17:10:29.123Z,10.90
2023-04-14T17:12:56.328Z,10.80
2023-04-14T17:16:08.186Z,10.70
2023-04-14T17:18:54.174Z,10.70
2023-04-14T17:21:21.469Z,10.60
2023-04-14T17:23:50.088Z,10.60
2023-04-14T17:26:18.399Z,10.60
2023-04-14T17:28:48.884Z,10.50
2023-04-14T17:31:24.601Z,10.50
2023-04-14T17:33:57.314Z,10.40
2023-04-14T17:36:24.714Z,10.40
2023-04-14T17:38:53.317Z,10.30
2023-04-14T17:41:21.391Z,10.30
2023-04-14T17:43:49.610Z,10.30
2023-04-14T17:46:19.890Z,10.20
2023-04-14T17:48:52.550Z,10.20
2023-04-14T17:54:28.726Z,10.20
2023-04-14T17:56:58.550Z,10.30
2023-04-14T17:59:39.490Z,10.10
2023-04-14T18:02:06.832Z,10.10
2023-04-14T18:04:34.308Z,10.10
2023-04-14T18:07:04.786Z,10.10
2023-04-14T18:09:40.846Z,10.10
2023-04-14T18:12:09.966Z,10.10
2023-04-14T18:14:36.869Z,10.10
2023-04-14T18:17:10.184Z,10.10
2023-04-14T18:19:40.121Z,10.00
2023-04-14T18:22:10.552Z,10.00
2023-04-14T18:24:48.183Z,10.00
2023-04-14T18:29:46.748Z,10.00
2023-04-14T18:32:14.007Z,10.00
2023-04-14T18:34:41.765Z,10.00
2023-04-14T18:37:09.985Z,10.10
2023-04-14T18:39:38.131Z,9.90
2023-04-14T18:42:05.371Z,9.90
2023-04-14T18:44:38.804Z,9.90
2023-04-14T18:47:05.916Z,9.80
2023-04-14T18:49:38.553Z,9.80
2023-04-14T18:52:08.742Z,9.80
2023-04-14T18:54:36.079Z,9.80
2023-04-14T18:57:03.726Z,9.70
2023-04-14T18:59:34.204Z,9.70
2023-04-14T19:02:05.154Z,9.70
2023-04-14T19:04:35.915Z,9.70
2023-04-14T19:07:06.612Z,9.70
2023-04-14T19:09:38.519Z,9.70
2023-04-14T19:12:09.265Z,9.60
2023-04-14T19:15:29.148Z,9.50
2023-04-14T19:17:59.596Z,9.50
2023-04-14T19:20:42.908Z,9.50
2023-04-14T19:23:19.873Z,9.50
2023-04-14T19:25:50.310Z,9.50
2023-04-14T19:28:18.376Z,9.70
2023-04-14T19:30:48.709Z,9.40
2023-04-14T19:33:27.050Z,9.40
2023-04-14T19:35:54.373Z,9.40
2023-04-14T19:38:33.131Z,9.30
2023-04-14T19:41:00.536Z,9.30
2023-04-14T19:43:30.733Z,9.30
2023-04-14T19:46:07.508Z,9.30
2023-04-14T19:48:41.309Z,9.20
2023-04-14T19:51:10.108Z,9.20
2023-04-14T19:53:37.693Z,9.40
2023-04-14T19:56:11.964Z,9.20
2023-04-14T19:58:42.451Z,9.30
2023-04-14T20:01:13.186Z,9.20
2023-04-14T20:04:09.196Z,9.20
2023-04-14T20:06:33.136Z,9.10
2023-04-14T20:09:00.759Z,9.10
2023-04-14T20:11:29.339Z,9.10
2023-04-14T20:16:54.748Z,9.00
2023-04-14T20:19:25.204Z,9.00
2023-04-14T20:21:55.101Z,8.90
2023-04-14T20:24:30.510Z,8.90
2023-04-14T20:27:13.693Z,8.80
2023-04-14T20:30:15.628Z,8.80
2023-04-14T20:36:05.640Z,8.80
2023-04-14T20:38:42.227Z,8.80
2023-04-14T20:44:02.806Z,8.80
2023-04-14T20:46:42.076Z,8.70
2023-04-14T20:49:46.393Z,8.80
2023-04-14T20:52:18.504Z,8.80
2023-04-14T20:54:45.580Z,8.70
2023-04-14T20:57:17.771Z,8.70
2023-04-14T20:59:51.064Z,8.70
2023-04-14T21:02:18.788Z,8.70
2023-04-14T21:08:41.208Z,8.60
2023-04-14T21:11:16.588Z,8.70
2023-04-14T21:15:34.705Z,8.60
2023-04-14T21:17:00.449Z,8.60
2023-04-14T21:19:33.659Z,8.60
2023-04-14T21:22:05.822Z,8.60
2023-04-14T21:24:42.433Z,8.60
2023-04-14T21:27:22.915Z,8.60
2023-04-14T21:29:58.775Z,8.50
2023-04-14T21:32:29.051Z,8.50
2023-04-14T21:34:56.363Z,8.60
2023-04-14T21:37:27.065Z,8.50
2023-04-14T21:39:56.672Z,8.50
2023-04-14T21:42:27.820Z,8.50
2023-04-14T21:45:05.528Z,8.50
2023-04-14T21:47:38.369Z,8.50
2023-04-14T21:50:16.928Z,8.50
2023-04-14T21:52:55.791Z,8.50
2023-04-14T21:58:09.451Z,8.50
2023-04-14T22:01:04.347Z,8.50
2023-04-14T22:03:36.014Z,8.40
2023-04-14T22:06:10.266Z,8.50
2023-04-14T22:08:48.789Z,8.50
2023-04-14T22:11:20.711Z,8.40
2023-04-14T22:14:36.325Z,8.50
2023-04-14T22:17:44.353Z,8.50
2023-04-14T22:20:14.461Z,8.40
2023-04-14T22:22:42.220Z,8.40
2023-04-14T22:25:50.744Z,8.40
2023-04-14T22:28:23.721Z,8.40
2023-04-14T22:30:53.460Z,8.50
2023-04-14T22:33:26.334Z,8.40
2023-04-14T22:35:53.785Z,8.40
2023-04-14T22:38:36.716Z,8.50
2023-04-14T22:41:15.206Z,8.50
2023-04-14T22:43:50.562Z,8.50
2023-04-14T22:46:19.705Z,8.70
2023-04-14T22:48:54.561Z,8.70
2023-04-14T22:51:21.772Z,8.50
2023-04-14T22:53:49.068Z,8.60
2023-04-14T23:02:06.620Z,8.40
2023-04-14T23:04:44.828Z,8.40
2023-04-14T23:07:14.405Z,8.40
2023-04-14T23:09:47.784Z,8.50
2023-04-14T23:12:19.729Z,8.40
2023-04-14T23:14:52.648Z,8.30
2023-04-14T23:17:31.412Z,8.40
2023-04-14T23:20:16.159Z,8.30
2023-04-14T23:29:59.345Z,8.30
2023-04-14T23:32:34.281Z,8.30
2023-04-14T23:40:50.069Z,8.20
2023-04-14T23:43:22.062Z,8.20
2023-04-14T23:46:03.100Z,8.20
2023-04-14T23:49:23.134Z,8.10
2023-04-14T23:52:09.410Z,8.00
2023-04-14T23:55:01.119Z,8.00
2023-04-14T23:57:32.909Z,8.00
